createdAt,value
2023-02-08T00:00:19.593Z,103833.66
2023-02-08T00:02:47.176Z,103825.59
2023-02-08T00:05:14.715Z,103824.38
2023-02-08T00:07:43.480Z,103828.19
2023-02-08T00:10:11.746Z,103817.50
2023-02-08T00:12:39.177Z,103824.03
2023-02-08T00:15:07.227Z,103822.84
2023-02-08T00:17:34.638Z,103818.69
2023-02-08T00:20:02.059Z,103820.75
2023-02-08T00:22:29.479Z,103819.72
2023-02-08T00:24:58.228Z,103816.56
2023-02-08T00:27:25.657Z,103816.56
2023-02-08T00:29:53.083Z,103816.84
2023-02-08T00:32:20.473Z,103818.31
2023-02-08T00:34:47.900Z,103812.94
2023-02-08T00:37:15.341Z,103818.97
2023-02-08T00:39:42.812Z,103818.47
2023-02-08T00:42:11.681Z,103816.19
2023-02-08T00:44:39.396Z,103813.13
2023-02-08T00:47:06.940Z,103817.16
2023-02-08T00:49:34.617Z,103820.47
2023-02-08T00:52:02.085Z,103808.00
2023-02-08T00:54:29.521Z,103815.50
2023-02-08T00:56:56.901Z,103815.09
2023-02-08T00:59:25.905Z,103812.06
2023-02-08T01:01:53.372Z,103820.88
2023-02-08T01:04:20.794Z,103823.41
2023-02-08T01:06:48.209Z,103828.16
2023-02-08T01:09:15.695Z,103823.94
2023-02-08T01:11:43.120Z,103820.03
2023-02-08T01:14:10.909Z,103818.00
2023-02-08T01:16:39.944Z,103821.63
2023-02-08T01:19:07.742Z,103824.06
2023-02-08T01:21:37.853Z,103814.22
2023-02-08T01:24:06.111Z,103819.28
2023-02-08T01:26:34.103Z,103820.75
2023-02-08T01:29:03.998Z,103820.53
2023-02-08T01:31:33.775Z,103813.78
2023-02-08T01:34:04.210Z,103812.63
2023-02-08T01:36:33.526Z,103816.19
2023-02-08T01:39:01.283Z,103816.97
2023-02-08T01:41:31.615Z,103816.75
2023-02-08T01:44:08.169Z,103815.25
2023-02-08T01:46:37.504Z,103805.53
2023-02-08T01:49:11.792Z,103803.34
2023-02-08T01:51:43.186Z,103801.25
2023-02-08T01:54:13.821Z,103805.59
2023-02-08T01:56:45.738Z,103807.56
2023-02-08T01:59:18.803Z,103803.34
2023-02-08T02:01:48.545Z,103806.78
2023-02-08T02:04:17.454Z,103807.47
2023-02-08T02:06:48.976Z,103800.91
2023-02-08T02:09:21.802Z,103801.41
2023-02-08T02:11:50.919Z,103795.66
2023-02-08T02:14:18.631Z,103798.91
2023-02-08T02:16:46.194Z,103802.28
2023-02-08T02:19:32.600Z,103799.75
2023-02-08T02:22:16.093Z,103801.69
2023-02-08T02:25:06.821Z,103803.47
2023-02-08T02:27:49.184Z,103807.06
2023-02-08T02:30:42.682Z,103815.88
2023-02-08T02:33:36.138Z,103809.75
2023-02-08T02:36:14.583Z,103815.75
2023-02-08T02:38:53.801Z,103812.19
2023-02-08T02:41:51.602Z,103814.41
2023-02-08T02:44:24.725Z,103818.16
2023-02-08T02:47:01.655Z,103808.88
2023-02-08T02:49:38.385Z,103804.41
2023-02-08T02:52:10.428Z,103817.09
2023-02-08T02:54:42.549Z,103810.69
2023-02-08T02:57:14.386Z,103810.97
2023-02-08T02:59:43.049Z,103816.34
2023-02-08T03:02:11.121Z,103815.28
2023-02-08T03:04:58.045Z,103808.84
2023-02-08T03:07:43.616Z,103813.69
2023-02-08T03:10:25.791Z,103817.81
2023-02-08T03:12:59.896Z,103814.56
2023-02-08T03:15:36.288Z,103810.66
2023-02-08T03:18:13.765Z,103806.19
2023-02-08T03:20:49.279Z,103806.63
2023-02-08T03:23:24.742Z,103816.88
2023-02-08T03:26:01.134Z,103818.13
2023-02-08T03:28:37.850Z,103821.66
2023-02-08T03:31:13.890Z,103819.88
2023-02-08T03:33:46.421Z,103816.03
2023-02-08T03:36:23.020Z,103822.13
2023-02-08T03:38:52.079Z,103816.25
2023-02-08T03:41:23.758Z,103815.09
2023-02-08T03:43:57.540Z,103827.25
2023-02-08T03:46:29.178Z,103818.84
2023-02-08T03:49:01.369Z,103815.88
2023-02-08T03:51:31.990Z,103815.75
2023-02-08T03:54:04.614Z,103818.59
2023-02-08T03:56:39.747Z,103818.72
2023-02-08T03:59:10.381Z,103828.06
2023-02-08T04:01:45.473Z,103824.78
2023-02-08T04:04:15.230Z,103815.38
2023-02-08T04:06:44.065Z,103824.25
2023-02-08T04:09:11.570Z,103826.44
2023-02-08T04:11:39.016Z,103821.34
2023-02-08T04:14:06.429Z,103824.63
2023-02-08T04:16:33.894Z,103814.22
2023-02-08T04:19:01.323Z,103811.56
2023-02-08T04:21:28.789Z,103818.53
2023-02-08T04:23:57.599Z,103810.72
2023-02-08T04:26:25.023Z,103807.78
2023-02-08T04:28:52.432Z,103814.16
2023-02-08T04:31:19.926Z,103821.22
2023-02-08T04:33:47.404Z,103824.38
2023-02-08T04:36:14.837Z,103821.50
2023-02-08T04:38:42.277Z,103814.66
2023-02-08T04:41:11.093Z,103822.81
2023-02-08T04:43:38.587Z,103821.25
2023-02-08T04:46:06.389Z,103818.63
2023-02-08T04:48:33.850Z,103810.19
2023-02-08T04:51:01.564Z,103818.56
2023-02-08T04:53:29.018Z,103821.16
2023-02-08T04:55:56.460Z,103819.59
2023-02-08T04:58:25.264Z,103813.31
2023-02-08T05:00:52.709Z,103812.84
2023-02-08T05:03:20.513Z,103812.13
2023-02-08T05:05:47.925Z,103813.03
2023-02-08T05:08:15.333Z,103811.50
2023-02-08T05:10:45.844Z,103818.03
2023-02-08T05:13:13.280Z,103817.63
2023-02-08T05:15:42.127Z,103818.22
2023-02-08T05:18:09.600Z,103818.34
2023-02-08T05:20:37.071Z,103812.69
2023-02-08T05:23:06.024Z,103818.72
2023-02-08T05:25:33.445Z,103818.56
2023-02-08T05:28:01.169Z,103816.47
2023-02-08T05:30:28.659Z,103816.56
2023-02-08T05:32:57.448Z,103816.28
2023-02-08T05:35:24.851Z,103821.91
2023-02-08T05:37:52.282Z,103818.38
2023-02-08T05:40:19.806Z,103823.19
2023-02-08T05:42:47.639Z,103825.00
2023-02-08T05:45:15.404Z,103838.78
2023-02-08T05:47:42.975Z,103834.44
2023-02-08T05:50:11.787Z,103835.28
2023-02-08T05:52:39.292Z,103832.47
2023-02-08T05:55:07.459Z,103833.38
2023-02-08T05:57:35.827Z,103837.13
2023-02-08T06:00:04.246Z,103825.34
2023-02-08T06:02:32.476Z,103830.22
2023-02-08T06:04:59.935Z,103832.94
2023-02-08T06:07:29.761Z,103834.44
2023-02-08T06:09:57.210Z,103841.81
2023-02-08T06:12:24.661Z,103843.91
2023-02-08T06:14:52.108Z,103850.09
2023-02-08T06:17:19.702Z,103850.00
2023-02-08T06:19:47.136Z,103851.09
2023-02-08T06:22:14.589Z,103854.50
2023-02-08T06:24:43.427Z,103849.72
2023-02-08T06:27:10.879Z,103848.84
2023-02-08T06:29:38.294Z,103853.94
2023-02-08T06:32:06.168Z,103856.16
2023-02-08T06:34:33.728Z,103863.47
2023-02-08T06:37:02.221Z,103855.91
2023-02-08T06:39:30.554Z,103854.34
2023-02-08T06:41:59.354Z,103855.06
2023-02-08T06:44:26.766Z,103859.78
2023-02-08T06:46:54.382Z,103862.72
2023-02-08T06:49:22.248Z,103864.97
2023-02-08T06:51:50.220Z,103862.53
2023-02-08T06:54:19.759Z,103864.97
2023-02-08T06:56:47.156Z,103869.16
2023-02-08T06:59:16.047Z,103865.81
2023-02-08T07:01:43.469Z,103866.03
2023-02-08T07:04:10.897Z,103865.09
2023-02-08T07:06:38.316Z,103870.34
2023-02-08T07:09:05.776Z,103866.63
2023-02-08T07:11:33.225Z,103861.53
2023-02-08T07:14:00.666Z,103864.50
2023-02-08T07:16:29.415Z,103862.16
2023-02-08T07:18:56.927Z,103859.88
2023-02-08T07:21:24.361Z,103859.00
2023-02-08T07:23:51.759Z,103861.41
2023-02-08T07:26:19.162Z,103859.63
2023-02-08T07:28:46.585Z,103864.16
2023-02-08T07:31:16.129Z,103863.78
2023-02-08T07:33:45.392Z,103867.72
2023-02-08T07:36:12.975Z,103864.75
2023-02-08T07:38:40.606Z,103865.66
2023-02-08T07:41:09.863Z,103864.47
2023-02-08T07:43:37.656Z,103864.69
2023-02-08T07:46:08.912Z,103871.94
2023-02-08T07:48:38.511Z,103880.59
2023-02-08T07:51:09.262Z,103888.38
2023-02-08T07:53:37.288Z,103892.56
2023-02-08T07:56:05.182Z,103892.28
2023-02-08T07:58:32.728Z,103893.31
2023-02-08T08:01:06.885Z,103898.22
2023-02-08T08:03:39.968Z,103900.19
2023-02-08T08:06:09.049Z,103889.69
2023-02-08T08:08:36.483Z,103900.66
2023-02-08T08:11:04.024Z,103893.78
2023-02-08T08:13:31.437Z,103901.53
2023-02-08T08:15:59.055Z,103900.34
2023-02-08T08:18:26.530Z,103902.16
2023-02-08T08:20:54.003Z,103902.88
2023-02-08T08:23:23.778Z,103901.88
2023-02-08T08:25:51.309Z,103897.81
2023-02-08T08:28:18.962Z,103909.19
2023-02-08T08:30:46.931Z,103894.09
2023-02-08T08:33:14.815Z,103889.44
2023-02-08T08:35:42.581Z,103891.06
2023-02-08T08:38:10.321Z,103891.38
2023-02-08T08:40:39.298Z,103894.84
2023-02-08T08:43:06.935Z,103890.81
2023-02-08T08:45:36.156Z,103880.28
2023-02-08T08:48:04.212Z,103880.16
2023-02-08T08:50:31.954Z,103871.66
2023-02-08T08:52:59.405Z,103873.88
2023-02-08T08:55:28.307Z,103877.88
2023-02-08T08:57:57.144Z,103874.13
2023-02-08T09:00:24.835Z,103873.75
2023-02-08T09:02:52.426Z,103879.63
2023-02-08T09:05:20.235Z,103869.84
2023-02-08T09:07:47.737Z,103876.56
2023-02-08T09:10:15.169Z,103869.66
2023-02-08T09:12:42.743Z,103869.84
2023-02-08T09:15:11.718Z,103861.88
2023-02-08T09:17:39.647Z,103866.59
2023-02-08T09:20:07.765Z,103859.28
2023-02-08T09:22:35.214Z,103868.84
2023-02-08T09:25:02.711Z,103876.75
2023-02-08T09:27:30.246Z,103879.09
2023-02-08T09:29:57.636Z,103880.44
2023-02-08T09:32:26.376Z,103883.88
2023-02-08T09:34:53.812Z,103886.63
2023-02-08T09:37:21.268Z,103885.69
2023-02-08T09:39:48.718Z,103884.69
2023-02-08T09:42:25.191Z,103884.53
2023-02-08T09:45:13.408Z,103872.97
2023-02-08T09:47:49.340Z,103890.38
2023-02-08T09:50:22.116Z,103874.25
2023-02-08T09:53:03.785Z,103870.56
2023-02-08T09:55:37.915Z,103872.59
2023-02-08T09:58:18.558Z,103859.09
2023-02-08T10:00:50.872Z,103856.72
2023-02-08T10:03:37.197Z,103848.69
2023-02-08T10:06:06.551Z,103838.78
2023-02-08T10:08:35.846Z,103844.63
2023-02-08T10:11:28.013Z,103832.44
2023-02-08T10:14:09.286Z,103835.56
2023-02-08T10:16:49.507Z,103823.03
2023-02-08T10:19:35.706Z,103819.97
2023-02-08T10:22:13.731Z,103817.03
2023-02-08T10:25:00.172Z,103813.44
2023-02-08T10:27:39.716Z,103819.38
2023-02-08T10:30:26.105Z,103809.84
2023-02-08T10:33:01.055Z,103807.69
2023-02-08T10:35:37.014Z,103797.91
2023-02-08T10:38:23.501Z,103801.22
2023-02-08T10:40:55.898Z,103787.56
2023-02-08T10:43:31.975Z,103786.94
2023-02-08T10:46:05.714Z,103783.78
2023-02-08T10:48:46.245Z,103791.00
2023-02-08T10:51:18.620Z,103789.47
2023-02-08T10:53:46.763Z,103782.66
2023-02-08T10:56:37.471Z,103780.50
2023-02-08T10:59:11.265Z,103778.16
2023-02-08T11:01:38.722Z,103770.09
2023-02-08T11:04:08.093Z,103770.13
2023-02-08T11:06:37.739Z,103759.28
2023-02-08T11:09:06.512Z,103760.50
2023-02-08T11:11:42.725Z,103756.41
2023-02-08T11:14:17.302Z,103758.34
2023-02-08T11:16:51.048Z,103763.91
2023-02-08T11:19:24.423Z,103765.94
2023-02-08T11:21:53.609Z,103765.69
2023-02-08T11:24:28.880Z,103764.47
2023-02-08T11:26:57.335Z,103766.13
2023-02-08T11:29:26.389Z,103767.84
2023-02-08T11:32:02.341Z,103758.31
2023-02-08T11:34:32.687Z,103762.03
2023-02-08T11:37:04.687Z,103765.31
2023-02-08T11:39:39.204Z,103765.06
2023-02-08T11:42:08.188Z,103758.16
2023-02-08T11:44:38.018Z,103742.69
2023-02-08T11:47:08.545Z,103748.31
2023-02-08T11:49:39.840Z,103754.69
2023-02-08T11:52:21.264Z,103757.72
2023-02-08T11:54:48.764Z,103741.69
2023-02-08T11:57:19.683Z,103751.22
2023-02-08T11:59:48.065Z,103750.16
2023-02-08T12:02:32.398Z,103755.41
2023-02-08T12:05:00.625Z,103753.31
2023-02-08T12:07:41.416Z,103745.91
2023-02-08T12:10:21.879Z,103745.66
2023-02-08T12:13:16.775Z,103744.25
2023-02-08T12:15:59.007Z,103751.94
2023-02-08T12:18:51.872Z,103754.88
2023-02-08T12:21:22.784Z,103752.28
2023-02-08T12:23:58.615Z,103752.59
2023-02-08T12:26:44.915Z,103769.75
2023-02-08T12:29:45.636Z,103761.13
2023-02-08T12:32:34.532Z,103763.59
2023-02-08T12:35:33.175Z,103765.72
2023-02-08T12:38:34.343Z,103766.59
2023-02-08T12:41:12.791Z,103758.34
2023-02-08T12:43:51.005Z,103759.88
2023-02-08T12:46:45.216Z,103769.13
2023-02-08T12:49:45.218Z,103751.69
2023-02-08T12:52:25.060Z,103744.22
2023-02-08T12:54:57.906Z,103746.44
2023-02-08T12:57:31.751Z,103747.47
2023-02-08T13:00:04.107Z,103743.63
2023-02-08T13:02:43.298Z,103745.94
2023-02-08T13:05:18.612Z,103736.09
2023-02-08T13:07:50.357Z,103738.88
2023-02-08T13:10:26.679Z,103735.41
2023-02-08T13:12:58.121Z,103730.28
2023-02-08T13:15:31.945Z,103729.31
2023-02-08T13:18:02.646Z,103720.91
2023-02-08T13:20:39.573Z,103717.81
2023-02-08T13:23:16.516Z,103708.69
2023-02-08T13:25:45.472Z,103714.28
2023-02-08T13:28:19.927Z,103704.59
2023-02-08T13:30:55.108Z,103702.28
2023-02-08T13:33:30.263Z,103703.41
2023-02-08T13:35:58.883Z,103699.25
2023-02-08T13:38:29.531Z,103691.34
2023-02-08T13:41:15.548Z,103691.19
2023-02-08T13:43:51.379Z,103702.19
2023-02-08T13:46:21.027Z,103694.75
2023-02-08T13:48:51.204Z,103688.03
2023-02-08T13:51:51.830Z,103686.13
2023-02-08T13:54:19.443Z,103691.88
2023-02-08T13:56:49.091Z,103679.97
2023-02-08T13:59:30.255Z,103676.75
2023-02-08T14:02:29.918Z,103687.47
2023-02-08T14:05:35.459Z,103672.38
2023-02-08T14:08:06.553Z,103679.06
2023-02-08T14:10:39.337Z,103664.69
2023-02-08T14:13:17.063Z,103676.13
2023-02-08T14:15:46.145Z,103675.75
2023-02-08T14:18:26.469Z,103676.22
2023-02-08T14:21:03.344Z,103662.09
2023-02-08T14:23:32.396Z,103663.22
2023-02-08T14:26:06.470Z,103662.47
2023-02-08T14:28:38.418Z,103674.16
2023-02-08T14:31:10.906Z,103658.50
2023-02-08T14:33:40.784Z,103649.84
2023-02-08T14:36:24.299Z,103655.59
2023-02-08T14:39:08.304Z,103648.03
2023-02-08T14:41:51.497Z,103637.97
2023-02-08T14:44:55.565Z,103646.56
2023-02-08T14:48:03.906Z,103646.31
2023-02-08T14:50:51.115Z,103645.06
2023-02-08T14:53:29.978Z,103645.34
2023-02-08T14:56:03.782Z,103642.31
2023-02-08T14:58:35.695Z,103630.25
2023-02-08T15:01:08.011Z,103631.13
2023-02-08T15:03:36.176Z,103626.81
2023-02-08T15:06:49.945Z,103626.69
2023-02-08T15:09:20.946Z,103624.66
2023-02-08T15:12:00.648Z,103619.44
2023-02-08T15:14:29.867Z,103624.66
2023-02-08T15:16:58.202Z,103613.25
2023-02-08T15:19:29.653Z,103610.16
2023-02-08T15:22:17.872Z,103603.13
2023-02-08T15:24:53.123Z,103602.00
2023-02-08T15:27:23.762Z,103590.03
2023-02-08T15:29:51.408Z,103596.41
2023-02-08T15:32:24.295Z,103595.38
2023-02-08T15:34:55.620Z,103592.59
2023-02-08T15:37:24.827Z,103588.25
2023-02-08T15:39:54.829Z,103583.16
2023-02-08T15:42:25.854Z,103591.41
2023-02-08T15:44:53.860Z,103583.66
2023-02-08T15:47:27.652Z,103580.06
2023-02-08T15:49:56.224Z,103577.53
2023-02-08T15:52:28.742Z,103581.63
2023-02-08T15:54:56.219Z,103575.75
2023-02-08T15:57:34.078Z,103576.88
2023-02-08T16:00:02.391Z,103572.28
2023-02-08T16:02:31.931Z,103572.91
2023-02-08T16:05:00.979Z,103578.22
2023-02-08T16:07:34.283Z,103572.91
2023-02-08T16:10:02.255Z,103580.16
2023-02-08T16:12:30.191Z,103583.78
2023-02-08T16:14:58.179Z,103578.09
2023-02-08T16:17:43.317Z,103574.09
2023-02-08T16:20:28.692Z,103568.19
2023-02-08T16:23:01.810Z,103568.19
2023-02-08T16:25:37.790Z,103567.00
2023-02-08T16:28:06.641Z,103576.09
2023-02-08T16:30:34.908Z,103576.31
2023-02-08T16:33:08.565Z,103574.53
2023-02-08T16:35:39.556Z,103582.91
2023-02-08T16:38:11.084Z,103577.38
2023-02-08T16:40:48.821Z,103573.38
2023-02-08T16:43:17.860Z,103580.38
2023-02-08T16:45:45.452Z,103572.06
2023-02-08T16:48:33.314Z,103572.63
2023-02-08T16:51:00.983Z,103575.63
2023-02-08T16:53:41.388Z,103571.13
2023-02-08T16:56:10.748Z,103567.44
2023-02-08T16:58:38.432Z,103566.81
2023-02-08T17:01:06.574Z,103561.44
2023-02-08T17:03:36.601Z,103559.00
2023-02-08T17:06:04.181Z,103558.16
2023-02-08T17:08:35.802Z,103556.88
2023-02-08T17:11:03.308Z,103559.50
2023-02-08T17:13:30.816Z,103561.03
2023-02-08T17:16:00.147Z,103558.09
2023-02-08T17:18:27.970Z,103554.25
2023-02-08T17:23:27.346Z,103558.31
2023-02-08T17:25:57.675Z,103566.88
2023-02-08T17:28:25.236Z,103558.06
2023-02-08T17:30:53.419Z,103557.41
2023-02-08T17:33:20.977Z,103560.25
2023-02-08T17:35:51.152Z,103559.72
2023-02-08T17:38:19.533Z,103553.28
2023-02-08T17:40:47.137Z,103561.34
2023-02-08T17:43:16.066Z,103554.22
2023-02-08T17:45:45.107Z,103547.72
2023-02-08T17:48:14.185Z,103538.16
2023-02-08T17:50:43.316Z,103548.66
2023-02-08T17:53:10.983Z,103541.38
2023-02-08T17:55:38.426Z,103535.16
2023-02-08T17:58:05.926Z,103532.75
2023-02-08T18:00:35.153Z,103534.00
2023-02-08T18:03:03.066Z,103534.66
2023-02-08T18:05:31.374Z,103535.25
2023-02-08T18:07:58.858Z,103531.88
2023-02-08T18:10:28.301Z,103527.47
2023-02-08T18:12:55.807Z,103522.84
2023-02-08T18:15:24.196Z,103530.78
2023-02-08T18:17:52.945Z,103531.88
2023-02-08T18:20:20.457Z,103524.28
2023-02-08T18:22:47.943Z,103522.81
2023-02-08T18:25:16.172Z,103517.69
2023-02-08T18:27:43.613Z,103526.59
2023-02-08T18:30:12.593Z,103515.22
2023-02-08T18:32:40.293Z,103508.50
2023-02-08T18:35:09.635Z,103504.72
2023-02-08T18:37:38.091Z,103510.53
2023-02-08T18:40:08.594Z,103504.84
2023-02-08T18:42:36.586Z,103496.19
2023-02-08T18:45:04.648Z,103495.88
2023-02-08T18:47:32.573Z,103489.38
2023-02-08T18:50:00.001Z,103483.69
2023-02-08T18:52:31.389Z,103473.50
2023-02-08T18:54:59.744Z,103473.66
2023-02-08T18:57:27.313Z,103470.06
2023-02-08T18:59:55.894Z,103478.50
2023-02-08T19:02:26.288Z,103474.94
2023-02-08T19:04:53.806Z,103465.88
2023-02-08T19:07:21.263Z,103466.31
2023-02-08T19:09:50.035Z,103457.00
2023-02-08T19:12:18.973Z,103460.47
2023-02-08T19:14:50.518Z,103451.44
2023-02-08T19:17:18.434Z,103453.81
2023-02-08T19:19:46.081Z,103445.31
2023-02-08T19:22:13.674Z,103440.88
2023-02-08T19:24:41.118Z,103436.19
2023-02-08T19:27:09.836Z,103435.78
2023-02-08T19:29:37.314Z,103426.09
2023-02-08T19:32:04.897Z,103427.69
2023-02-08T19:34:32.376Z,103429.72
2023-02-08T19:36:59.831Z,103431.19
2023-02-08T19:39:28.679Z,103427.06
2023-02-08T19:41:58.562Z,103425.84
2023-02-08T19:44:30.277Z,103436.66
2023-02-08T19:46:58.315Z,103427.38
2023-02-08T19:49:27.257Z,103427.13
2023-02-08T19:51:54.857Z,103426.44
2023-02-08T19:54:23.014Z,103416.34
2023-02-08T19:56:52.166Z,103405.91
2023-02-08T19:59:22.049Z,103404.22
2023-02-08T20:01:51.306Z,103405.66
2023-02-08T20:04:18.794Z,103398.84
2023-02-08T20:06:46.311Z,103403.66
2023-02-08T20:09:16.601Z,103402.25
2023-02-08T20:11:56.321Z,103406.00
2023-02-08T20:14:25.194Z,103403.56
2023-02-08T20:16:54.131Z,103408.44
2023-02-08T20:19:21.747Z,103404.50
2023-02-08T20:21:49.568Z,103399.78
2023-02-08T20:24:17.210Z,103404.41
2023-02-08T20:26:46.453Z,103402.78
2023-02-08T20:29:15.009Z,103400.34
2023-02-08T20:31:43.972Z,103400.91
2023-02-08T20:34:15.061Z,103401.28
2023-02-08T20:36:49.700Z,103390.22
2023-02-08T20:39:20.728Z,103387.44
2023-02-08T20:41:48.590Z,103379.84
2023-02-08T20:44:19.172Z,103384.41
2023-02-08T20:46:47.478Z,103391.09
2023-02-08T20:49:21.935Z,103385.78
2023-02-08T20:51:51.858Z,103387.63
2023-02-08T20:54:19.703Z,103378.19
2023-02-08T20:56:47.178Z,103372.38
2023-02-08T20:59:15.816Z,103381.06
2023-02-08T21:01:46.401Z,103373.94
2023-02-08T21:04:14.447Z,103374.75
2023-02-08T21:06:45.971Z,103366.50
2023-02-08T21:09:16.014Z,103361.97
2023-02-08T21:11:44.567Z,103363.25
2023-02-08T21:14:15.333Z,103355.50
2023-02-08T21:16:43.157Z,103365.78
2023-02-08T21:19:10.990Z,103362.09
2023-02-08T21:21:38.711Z,103356.38
2023-02-08T21:24:07.800Z,103352.19
2023-02-08T21:26:35.450Z,103346.44
2023-02-08T21:29:06.054Z,103354.56
2023-02-08T21:31:36.426Z,103351.78
2023-02-08T21:34:04.516Z,103344.25
2023-02-08T21:36:32.469Z,103336.53
2023-02-08T21:39:00.324Z,103330.56
2023-02-08T21:41:31.711Z,103336.84
2023-02-08T21:44:00.926Z,103328.38
2023-02-08T21:46:28.803Z,103315.94
2023-02-08T21:49:14.899Z,103315.88
2023-02-08T21:52:00.481Z,103310.81
2023-02-08T21:54:53.487Z,103305.28
2023-02-08T21:57:23.949Z,103304.94
2023-02-08T21:59:53.835Z,103305.72
2023-02-08T22:02:25.556Z,103305.06
2023-02-08T22:04:54.260Z,103299.59
2023-02-08T22:07:22.148Z,103294.97
2023-02-08T22:09:49.823Z,103301.44
2023-02-08T22:12:20.596Z,103296.53
2023-02-08T22:14:50.231Z,103288.47
2023-02-08T22:17:17.898Z,103289.69
2023-02-08T22:19:45.764Z,103290.06
2023-02-08T22:22:13.336Z,103287.25
2023-02-08T22:24:40.799Z,103284.06
2023-02-08T22:27:08.327Z,103282.34
2023-02-08T22:29:35.971Z,103293.41
2023-02-08T22:32:05.610Z,103282.72
2023-02-08T22:34:33.193Z,103276.94
2023-02-08T22:37:03.693Z,103264.88
2023-02-08T22:39:32.830Z,103260.13
2023-02-08T22:42:00.534Z,103265.66
2023-02-08T22:44:27.965Z,103263.06
2023-02-08T22:46:57.364Z,103252.94
2023-02-08T22:49:26.272Z,103256.28
2023-02-08T22:51:53.773Z,103261.81
2023-02-08T22:54:21.326Z,103242.66
2023-02-08T22:56:49.098Z,103244.66
2023-02-08T22:59:16.808Z,103253.97
2023-02-08T23:01:44.645Z,103238.59
2023-02-08T23:04:12.279Z,103240.03
2023-02-08T23:06:41.193Z,103236.47
2023-02-08T23:09:08.724Z,103238.97
2023-02-08T23:11:36.166Z,103231.38
2023-02-08T23:14:03.592Z,103237.31
2023-02-08T23:16:31.165Z,103246.97
2023-02-08T23:18:58.625Z,103237.41
2023-02-08T23:21:26.164Z,103234.03
2023-02-08T23:23:54.943Z,103233.78
2023-02-08T23:26:23.363Z,103229.53
2023-02-08T23:28:52.713Z,103230.69
2023-02-08T23:31:21.822Z,103231.88
2023-02-08T23:33:49.609Z,103229.56
2023-02-08T23:36:19.854Z,103235.63
2023-02-08T23:38:47.795Z,103231.53
2023-02-08T23:41:18.289Z,103232.69
2023-02-08T23:43:45.858Z,103233.97
2023-02-08T23:46:17.408Z,103232.53
2023-02-08T23:48:47.520Z,103230.34
2023-02-08T23:51:16.140Z,103225.84
2023-02-08T23:53:43.739Z,103232.16
2023-02-08T23:56:15.342Z,103234.34
2023-02-08T23:58:44.808Z,103233.50
